This is the latest recevied weather packets stored in our database for station/object N3AVN. If no packets are shown the sender has not sent any weather packets the latest 10 day(s).
| Time | Temp. | Humidity | Pressure | Rain* | Wind** | Luminosity | Snow |
|---|---|---|---|---|---|---|---|
| 1777817975 | 10.56° C | 54% | 1007.7 hPa | 0 mm | - | 686 W/m² | - |
| 1777817673 | 11.11° C | 52% | 1007.6 hPa | 0 mm | - | 462 W/m² | - |
| 1777817369 | 11.11° C | 53% | 1007.6 hPa | 0 mm | - | 459 W/m² | - |
| 1777817066 | 11.11° C | 55% | 1007.7 hPa | 0 mm | - | 446 W/m² | - |
| 1777816762 | 11.11° C | 53% | 1007.7 hPa | 0 mm | - | 541 W/m² | - |
| 1777816460 | 10° C | 55% | 1007.7 hPa | 0 mm | - | 636 W/m² | - |
| 1777816157 | 10.56° C | 55% | 1007.8 hPa | 0 mm | - | 305 W/m² | - |
| 1777815855 | 10.56° C | 55% | 1007.8 hPa | 0 mm | - | 467 W/m² | - |
| 1777815552 | 10° C | 58% | 1007.9 hPa | 0 mm | - | 566 W/m² | - |
| 1777815250 | 9.44° C | 59% | 1007.6 hPa | 0 mm | - | 196 W/m² | - |
| 1777814945 | 9.44° C | 57% | 1007.8 hPa | 0 mm | - | 308 W/m² | - |
| 1777814642 | 10° C | 58% | 1007.8 hPa | 0 mm | - | 402 W/m² | - |
| 1777814339 | 9.44° C | 61% | 1008.1 hPa | 0 mm | - | 659 W/m² | - |
| 1777814035 | 9.44° C | 61% | 1008 hPa | 0 mm | - | 215 W/m² | - |
| 1777813733 | 10° C | 60% | 1007.9 hPa | 0 mm | - | 245 W/m² | - |
| 1777813430 | 10° C | 59% | 1007.8 hPa | 0 mm | - | 274 W/m² | - |
| 1777813127 | 8.89° C | 61% | 1008.1 hPa | 0 mm | - | 398 W/m² | - |
| 1777812825 | 8.89° C | 62% | 1008.1 hPa | 0 mm | - | 415 W/m² | - |
| 1777812521 | 8.89° C | 63% | 1007.9 hPa | 0 mm | - | 407 W/m² | - |
| 1777812219 | 8.33° C | 64% | 1008 hPa | 0 mm | - | 170 W/m² | - |
| 1777811917 | 7.78° C | 65% | 1008.1 hPa | 0 mm | - | 201 W/m² | - |
| 1777811616 | 8.33° C | 63% | 1008.3 hPa | 0 mm | - | 159 W/m² | - |
| 1777811311 | 7.78° C | 65% | 1008.3 hPa | 0 mm | - | 165 W/m² | - |
| 1777811009 | 7.78° C | 66% | 1008.2 hPa | 0 mm | - | 334 W/m² | - |
| 1777810706 | 7.22° C | 67% | 1008.1 hPa | 0 mm | - | 152 W/m² | - |
* Rain latest hour (hover to see other rain measurements)
** Current wind speed in m/s (hover to see current wind gust speed)